createdAt,value
2019-05-10T00:00:51.373Z,99143.30
2019-05-10T00:01:44.624Z,99147.75
2019-05-10T00:02:37.993Z,99150.69
2019-05-10T00:03:31.661Z,99150.69
2019-05-10T00:04:24.749Z,99139.05
2019-05-10T00:05:18.294Z,99146.12
2019-05-10T00:06:11.761Z,99148.48
2019-05-10T00:07:05.088Z,99149.50
2019-05-10T00:07:58.419Z,99149.50
2019-05-10T00:08:45.185Z,99150.95
2019-05-10T00:09:20.078Z,99150.95
2019-05-10T00:09:54.984Z,99152.77
2019-05-10T00:10:29.501Z,99150.38
2019-05-10T00:11:31.223Z,99156.54
2019-05-10T00:12:24.304Z,99156.54
2019-05-10T00:13:17.536Z,99158.55
2019-05-10T00:13:59.276Z,99158.55
2019-05-10T00:14:59.529Z,99160.72
2019-05-10T00:15:36.353Z,99161.45
2019-05-10T00:16:12.603Z,99163.88
2019-05-10T00:16:49.256Z,99163.88
2019-05-10T00:17:25.081Z,99156.84
2019-05-10T00:18:00.523Z,99159.20
2019-05-10T00:18:37.123Z,99160.57
2019-05-10T00:19:13.119Z,99160.57
2019-05-10T00:19:49.058Z,99165.21
2019-05-10T00:20:24.827Z,99165.21
2019-05-10T00:21:00.765Z,99160.72
2019-05-10T00:21:36.578Z,99160.80
2019-05-10T00:22:12.674Z,99166.92
2019-05-10T00:22:48.209Z,99163.73
2019-05-10T00:23:24.109Z,99167.64
2019-05-10T00:24:00.048Z,99163.13
2019-05-10T00:24:35.800Z,99166.77
2019-05-10T00:25:11.410Z,99169.25
2019-05-10T00:25:47.123Z,99164.64
2019-05-10T00:26:23.171Z,99163.92
2019-05-10T00:26:58.762Z,99159.73
2019-05-10T00:27:34.217Z,99166.84
2019-05-10T00:28:09.881Z,99167.88
2019-05-10T00:28:45.643Z,99167.68
2019-05-10T00:29:21.803Z,99166.58
2019-05-10T00:29:57.212Z,99160.38
2019-05-10T00:30:32.827Z,99160.38
2019-05-10T00:31:08.594Z,99161.97
2019-05-10T00:31:44.255Z,99161.97
2019-05-10T00:32:19.705Z,99166.24
2019-05-10T00:32:55.767Z,99168.59
2019-05-10T00:33:31.817Z,99168.59
2019-05-10T00:34:07.847Z,99174.41
2019-05-10T00:34:43.786Z,99174.98
2019-05-10T00:35:19.439Z,99175.97
2019-05-10T00:35:55.060Z,99175.97
2019-05-10T00:36:30.706Z,99180.79
2019-05-10T00:37:06.692Z,99178.55
2019-05-10T00:37:42.411Z,99179.47
2019-05-10T00:38:18.556Z,99182.64
2019-05-10T00:38:54.206Z,99176.61
2019-05-10T00:39:29.642Z,99176.61
2019-05-10T00:40:06.772Z,99178.13
2019-05-10T00:40:42.557Z,99185.35
2019-05-10T00:41:18.181Z,99185.35
2019-05-10T00:41:53.760Z,99175.44
2019-05-10T00:42:30.758Z,99188.11
2019-05-10T00:43:06.436Z,99183.62
2019-05-10T00:43:42.493Z,99183.62
2019-05-10T00:44:18.104Z,99181.98
2019-05-10T00:44:53.849Z,99181.98
2019-05-10T00:45:29.569Z,99185.41
2019-05-10T00:46:06.598Z,99188.56
2019-05-10T00:46:42.568Z,99184.95
2019-05-10T00:47:18.576Z,99184.95
2019-05-10T00:47:54.322Z,99191.03
2019-05-10T00:48:29.988Z,99183.88
2019-05-10T00:49:05.448Z,99186.81
2019-05-10T00:49:41.429Z,99186.81
2019-05-10T00:50:17.122Z,99188.39
2019-05-10T00:50:52.752Z,99188.39
2019-05-10T00:51:28.574Z,99196.28
2019-05-10T00:52:04.279Z,99189.54
2019-05-10T00:52:39.988Z,99197.19
2019-05-10T00:53:16.088Z,99184.90
2019-05-10T00:53:51.901Z,99188.78
2019-05-10T00:54:27.905Z,99193.79
2019-05-10T00:55:17.866Z,99191.53
2019-05-10T00:55:40.924Z,99191.97
2019-05-10T00:56:16.371Z,99191.97
2019-05-10T00:56:52.027Z,99190.09
2019-05-10T00:57:28.096Z,99190.09
2019-05-10T00:58:03.716Z,99184.09
2019-05-10T00:58:39.217Z,99190.50
2019-05-10T00:59:15.398Z,99189.41
2019-05-10T00:59:51.692Z,99189.41
2019-05-10T01:00:27.312Z,99186.34
2019-05-10T01:01:02.768Z,99191.08
2019-05-10T01:01:38.733Z,99187.70
2019-05-10T01:02:14.390Z,99194.59
2019-05-10T01:02:49.985Z,99191.56
2019-05-10T01:03:25.448Z,99191.56
2019-05-10T01:04:01.350Z,99193.66
2019-05-10T01:04:37.034Z,99193.66
2019-05-10T01:05:12.737Z,99193.27
2019-05-10T01:05:48.590Z,99194.14
2019-05-10T01:06:24.209Z,99193.03
2019-05-10T01:06:59.851Z,99188.97
2019-05-10T01:07:35.870Z,99202.23
2019-05-10T01:08:12.077Z,99196.50
2019-05-10T01:08:47.740Z,99196.33
2019-05-10T01:09:23.633Z,99196.00
2019-05-10T01:09:59.626Z,99195.44
2019-05-10T01:10:35.084Z,99190.31
2019-05-10T01:11:10.738Z,99191.61
2019-05-10T01:11:46.405Z,99188.00
2019-05-10T01:12:22.486Z,99187.55
2019-05-10T01:12:58.194Z,99193.63
2019-05-10T01:13:34.744Z,99193.63
2019-05-10T01:14:10.480Z,99191.12
2019-05-10T01:14:46.433Z,99191.06
2019-05-10T01:15:22.200Z,99191.06
2019-05-10T01:15:58.121Z,99190.84
2019-05-10T01:16:34.101Z,99195.77
2019-05-10T01:17:09.735Z,99206.09
2019-05-10T01:17:45.442Z,99206.09
2019-05-10T01:18:21.497Z,99200.80
2019-05-10T01:18:57.104Z,99205.97
2019-05-10T01:19:32.779Z,99214.94
2019-05-10T01:20:08.448Z,99208.56
2019-05-10T01:20:44.461Z,99208.56
2019-05-10T01:21:20.504Z,99210.84
2019-05-10T01:21:56.556Z,99210.84
2019-05-10T01:22:35.034Z,99218.69
2019-05-10T01:23:11.015Z,99214.05
2019-05-10T01:23:47.183Z,99213.52
2019-05-10T01:24:22.808Z,99206.75
2019-05-10T01:24:58.268Z,99206.75
2019-05-10T01:25:35.832Z,99218.04
2019-05-10T01:26:11.332Z,99218.44
2019-05-10T01:26:47.299Z,99216.84
2019-05-10T01:27:22.773Z,99227.34
2019-05-10T01:27:58.390Z,99226.13
2019-05-10T01:28:34.127Z,99222.25
2019-05-10T01:29:09.816Z,99231.22
2019-05-10T01:29:45.657Z,99221.55
2019-05-10T01:30:21.390Z,99225.11
2019-05-10T01:30:57.398Z,99221.73
2019-05-10T01:31:34.180Z,99229.81
2019-05-10T01:32:09.978Z,99228.89
2019-05-10T01:32:45.730Z,99228.89
2019-05-10T01:33:21.438Z,99229.68
2019-05-10T01:33:57.439Z,99221.22
2019-05-10T01:34:32.871Z,99228.92
2019-05-10T01:35:08.560Z,99228.92
2019-05-10T01:35:44.196Z,99231.36
2019-05-10T01:36:23.047Z,99228.40
2019-05-10T01:36:58.504Z,99230.53
2019-05-10T01:37:34.448Z,99230.67
2019-05-10T01:38:10.140Z,99237.44
2019-05-10T01:38:45.823Z,99226.52
2019-05-10T01:39:21.413Z,99226.52
2019-05-10T01:39:57.430Z,99231.13
2019-05-10T01:40:33.389Z,99233.54
2019-05-10T01:41:09.183Z,99237.44
2019-05-10T01:41:44.762Z,99236.30
2019-05-10T01:42:20.675Z,99242.47
2019-05-10T01:42:57.110Z,99242.47
2019-05-10T01:43:33.057Z,99239.12
2019-05-10T01:44:08.642Z,99242.61
2019-05-10T01:44:44.356Z,99237.75
2019-05-10T01:45:20.094Z,99232.91
2019-05-10T01:45:55.721Z,99231.13
2019-05-10T01:46:31.179Z,99243.97
2019-05-10T01:47:08.936Z,99235.10
2019-05-10T01:47:44.896Z,99248.55
2019-05-10T01:48:20.629Z,99248.55
2019-05-10T01:48:56.143Z,99242.16
2019-05-10T01:49:31.755Z,99243.88
2019-05-10T01:50:07.562Z,99236.36
2019-05-10T01:50:44.206Z,99243.14
2019-05-10T01:51:19.651Z,99237.41
2019-05-10T01:51:55.266Z,99237.41
2019-05-10T01:52:31.226Z,99241.22
2019-05-10T01:53:06.993Z,99241.22
2019-05-10T01:53:42.527Z,99235.73
2019-05-10T01:54:18.121Z,99236.96
2019-05-10T01:54:53.789Z,99241.61
2019-05-10T01:55:29.723Z,99241.61
2019-05-10T01:56:05.345Z,99244.26
2019-05-10T01:56:41.217Z,99238.05
2019-05-10T01:57:16.995Z,99240.52
2019-05-10T01:57:52.998Z,99240.52
2019-05-10T01:58:28.428Z,99241.29
2019-05-10T01:59:04.071Z,99241.29
2019-05-10T01:59:40.286Z,99241.11
2019-05-10T02:00:16.883Z,99236.82
2019-05-10T02:00:52.797Z,99238.56
2019-05-10T02:01:28.715Z,99240.77
2019-05-10T02:02:04.856Z,99237.03
2019-05-10T02:02:40.932Z,99239.50
2019-05-10T02:03:16.403Z,99228.93
2019-05-10T02:03:52.387Z,99238.05
2019-05-10T02:04:28.110Z,99237.27
2019-05-10T02:05:04.461Z,99236.75
2019-05-10T02:05:40.088Z,99243.80
2019-05-10T02:06:15.729Z,99244.64
2019-05-10T02:06:51.347Z,99242.89
2019-05-10T02:07:27.069Z,99239.72
2019-05-10T02:08:02.780Z,99242.12
2019-05-10T02:08:38.502Z,99241.98
2019-05-10T02:09:14.650Z,99241.98
2019-05-10T02:09:50.730Z,99240.55
2019-05-10T02:10:26.674Z,99249.21
2019-05-10T02:11:03.179Z,99249.21
2019-05-10T02:11:39.002Z,99244.88
2019-05-10T02:12:14.637Z,99246.10
2019-05-10T02:12:50.087Z,99243.20
2019-05-10T02:13:26.172Z,99249.14
2019-05-10T02:14:01.854Z,99252.25
2019-05-10T02:14:37.682Z,99248.20
2019-05-10T02:15:13.634Z,99248.83
2019-05-10T02:15:49.638Z,99249.35
2019-05-10T02:16:25.264Z,99251.17
2019-05-10T02:17:00.914Z,99251.87
2019-05-10T02:17:36.400Z,99246.17
2019-05-10T02:18:12.063Z,99246.17
2019-05-10T02:18:48.055Z,99248.76
2019-05-10T02:19:24.063Z,99254.20
2019-05-10T02:19:59.533Z,99254.20
2019-05-10T02:20:35.185Z,99254.66
2019-05-10T02:21:11.207Z,99247.15
2019-05-10T02:21:46.857Z,99245.02
2019-05-10T02:22:22.409Z,99244.12
2019-05-10T02:22:58.319Z,99256.56
2019-05-10T02:23:33.952Z,99256.56
2019-05-10T02:24:10.065Z,99244.93
2019-05-10T02:24:45.568Z,99250.73
2019-05-10T02:25:21.194Z,99256.25
2019-05-10T02:26:09.113Z,99256.95
2019-05-10T02:26:34.191Z,99259.39
2019-05-10T02:27:09.797Z,99260.05
2019-05-10T02:27:45.495Z,99262.47
2019-05-10T02:28:21.486Z,99263.77
2019-05-10T02:28:57.139Z,99258.38
2019-05-10T02:29:32.572Z,99262.00
2019-05-10T02:30:09.134Z,99262.00
2019-05-10T02:30:44.970Z,99258.58
2019-05-10T02:31:21.609Z,99256.52
2019-05-10T02:31:57.606Z,99256.52
2019-05-10T02:32:33.664Z,99263.74
2019-05-10T02:33:10.345Z,99268.61
2019-05-10T02:33:45.996Z,99268.61
2019-05-10T02:34:22.173Z,99263.74
2019-05-10T02:34:58.178Z,99259.88
2019-05-10T02:35:33.815Z,99258.73
2019-05-10T02:36:09.575Z,99258.73
2019-05-10T02:36:45.011Z,99252.88
2019-05-10T02:37:21.085Z,99257.67
2019-05-10T02:37:57.063Z,99258.73
2019-05-10T02:38:32.693Z,99256.91
2019-05-10T02:39:08.974Z,99267.18
2019-05-10T02:39:45.067Z,99267.18
2019-05-10T02:40:20.715Z,99257.53
2019-05-10T02:40:56.784Z,99261.39
2019-05-10T02:41:32.221Z,99272.13
2019-05-10T02:42:07.981Z,99264.91
2019-05-10T02:42:43.959Z,99258.90
2019-05-10T02:43:19.573Z,99266.66
2019-05-10T02:43:55.026Z,99266.66
2019-05-10T02:44:30.660Z,99269.33
2019-05-10T02:45:06.952Z,99270.30
2019-05-10T02:45:42.674Z,99268.23
2019-05-10T02:46:18.200Z,99268.70
2019-05-10T02:46:54.221Z,99276.76
2019-05-10T02:47:30.301Z,99269.98
2019-05-10T02:48:06.482Z,99279.35
2019-05-10T02:48:42.287Z,99279.35
2019-05-10T02:49:18.334Z,99274.49
2019-05-10T02:49:53.972Z,99274.33
2019-05-10T02:50:30.021Z,99270.46
2019-05-10T02:51:05.531Z,99273.59
2019-05-10T02:51:41.236Z,99273.72
2019-05-10T02:52:17.213Z,99273.72
2019-05-10T02:52:52.825Z,99271.66
2019-05-10T02:53:28.461Z,99277.52
2019-05-10T02:54:04.183Z,99277.52
2019-05-10T02:54:40.204Z,99274.31
2019-05-10T02:55:15.859Z,99264.14
2019-05-10T02:55:52.075Z,99264.14
2019-05-10T02:56:31.460Z,99280.86
2019-05-10T02:57:08.967Z,99273.64
2019-05-10T02:57:45.474Z,99273.64
2019-05-10T02:58:20.938Z,99277.73
2019-05-10T02:58:57.622Z,99275.52
2019-05-10T02:59:35.234Z,99275.52
2019-05-10T03:00:12.933Z,99280.39
2019-05-10T03:00:50.265Z,99277.89
2019-05-10T03:01:29.925Z,99274.45
2019-05-10T03:02:07.155Z,99274.45
2019-05-10T03:02:44.703Z,99282.29
2019-05-10T03:03:23.976Z,99287.06
2019-05-10T03:04:02.957Z,99285.32
2019-05-10T03:04:39.015Z,99274.23
2019-05-10T03:05:15.220Z,99274.23
2019-05-10T03:05:52.299Z,99289.04
2019-05-10T03:06:28.702Z,99290.33
2019-05-10T03:07:06.748Z,99286.91
2019-05-10T03:07:43.565Z,99283.94
2019-05-10T03:08:19.008Z,99285.69
2019-05-10T03:08:54.622Z,99293.50
2019-05-10T03:09:32.401Z,99286.20
2019-05-10T03:10:10.887Z,99286.20
2019-05-10T03:10:58.226Z,99286.52
2019-05-10T03:11:38.621Z,99289.34
2019-05-10T03:12:23.883Z,99291.27
2019-05-10T03:13:01.483Z,99292.18
2019-05-10T03:13:40.582Z,99292.18
2019-05-10T03:14:20.713Z,99287.02
2019-05-10T03:14:58.504Z,99294.09
2019-05-10T03:15:38.425Z,99295.60
2019-05-10T03:16:16.991Z,99295.60
2019-05-10T03:16:53.442Z,99299.02
2019-05-10T03:17:29.652Z,99298.73
2019-05-10T03:18:05.558Z,99297.80
2019-05-10T03:18:43.961Z,99297.89
2019-05-10T03:19:20.790Z,99296.15
2019-05-10T03:19:56.845Z,99296.15
2019-05-10T03:20:35.722Z,99295.08
2019-05-10T03:21:13.555Z,99299.80
2019-05-10T03:21:54.832Z,99299.80
2019-05-10T03:22:31.885Z,99297.38
2019-05-10T03:23:10.901Z,99313.56
2019-05-10T03:23:46.927Z,99305.95
2019-05-10T03:24:27.585Z,99305.95
2019-05-10T03:25:00.061Z,99309.08
2019-05-10T03:25:35.630Z,99309.08
2019-05-10T03:26:11.404Z,99306.70
2019-05-10T03:26:51.308Z,99307.09
2019-05-10T03:27:26.320Z,99307.09
2019-05-10T03:28:01.816Z,99307.02
2019-05-10T03:28:37.514Z,99308.92
2019-05-10T03:29:13.623Z,99310.83
2019-05-10T03:29:49.692Z,99310.83
2019-05-10T03:30:25.162Z,99302.33
2019-05-10T03:31:01.145Z,99311.84
2019-05-10T03:31:37.214Z,99312.41
2019-05-10T03:32:12.889Z,99312.41
2019-05-10T03:32:48.379Z,99313.92
2019-05-10T03:33:24.050Z,99312.95
2019-05-10T03:33:59.748Z,99315.02
2019-05-10T03:34:35.924Z,99309.76
2019-05-10T03:35:11.703Z,99309.76
2019-05-10T03:35:47.373Z,99308.86
2019-05-10T03:36:23.482Z,99308.49
2019-05-10T03:36:59.105Z,99313.56
2019-05-10T03:37:34.844Z,99312.12
2019-05-10T03:38:10.692Z,99316.64
2019-05-10T03:38:46.917Z,99301.98
2019-05-10T03:39:22.761Z,99313.77
2019-05-10T03:39:58.609Z,99316.96
2019-05-10T03:40:34.261Z,99316.98
2019-05-10T03:41:09.956Z,99308.37
2019-05-10T03:41:45.633Z,99320.83
2019-05-10T03:42:21.142Z,99320.83
2019-05-10T03:42:56.766Z,99313.98
2019-05-10T03:43:32.394Z,99318.77
2019-05-10T03:44:08.184Z,99318.99
2019-05-10T03:44:43.664Z,99318.99
2019-05-10T03:45:20.626Z,99309.77
2019-05-10T03:45:56.660Z,99316.77
2019-05-10T03:46:32.310Z,99316.77
2019-05-10T03:47:08.378Z,99320.19
2019-05-10T03:47:44.362Z,99319.34
2019-05-10T03:48:20.038Z,99327.83
2019-05-10T03:48:55.727Z,99316.51
2019-05-10T03:49:31.193Z,99316.51
2019-05-10T03:50:07.215Z,99312.70
2019-05-10T03:50:43.041Z,99322.67
2019-05-10T03:51:18.707Z,99322.67
2019-05-10T03:51:54.161Z,99330.67
2019-05-10T03:52:29.932Z,99329.31
2019-05-10T03:53:05.925Z,99329.31
2019-05-10T03:53:42.256Z,99321.83
2019-05-10T03:54:18.060Z,99321.83
2019-05-10T03:54:54.093Z,99333.16
2019-05-10T03:55:29.768Z,99321.92
2019-05-10T03:56:05.431Z,99326.70
2019-05-10T03:56:41.131Z,99325.80
2019-05-10T03:57:16.794Z,99325.80
2019-05-10T03:57:52.440Z,99329.22
2019-05-10T03:58:28.060Z,99329.22
2019-05-10T03:59:04.101Z,99330.96
2019-05-10T03:59:39.828Z,99330.96
2019-05-10T04:00:16.064Z,99329.24
2019-05-10T04:00:52.091Z,99329.24
2019-05-10T04:01:27.970Z,99334.02
2019-05-10T04:02:03.617Z,99331.50
2019-05-10T04:02:39.297Z,99331.50
2019-05-10T04:03:15.399Z,99334.69
2019-05-10T04:03:51.120Z,99340.69
2019-05-10T04:04:27.287Z,99337.27
2019-05-10T04:05:02.949Z,99335.37
2019-05-10T04:05:39.037Z,99335.37
2019-05-10T04:06:14.525Z,99330.62
2019-05-10T04:06:50.194Z,99330.62
2019-05-10T04:07:26.331Z,99332.11
2019-05-10T04:08:01.976Z,99335.47
2019-05-10T04:08:38.213Z,99333.69
2019-05-10T04:09:14.235Z,99333.69
2019-05-10T04:09:50.202Z,99344.50
2019-05-10T04:10:25.835Z,99343.82
2019-05-10T04:11:01.292Z,99343.82
2019-05-10T04:11:36.967Z,99342.08
2019-05-10T04:12:12.593Z,99342.08
2019-05-10T04:12:48.339Z,99339.50
2019-05-10T04:13:23.786Z,99339.50
2019-05-10T04:13:59.404Z,99348.53
2019-05-10T04:14:35.237Z,99346.30
2019-05-10T04:15:11.387Z,99343.00
2019-05-10T04:15:47.306Z,99343.52
2019-05-10T04:16:22.930Z,99354.27
2019-05-10T04:16:58.976Z,99354.27
2019-05-10T04:17:34.595Z,99352.25
2019-05-10T04:18:10.107Z,99352.25
2019-05-10T04:18:45.761Z,99350.16
2019-05-10T04:19:21.444Z,99350.16
2019-05-10T04:19:57.611Z,99344.31
2019-05-10T04:20:33.039Z,99344.31
2019-05-10T04:21:08.774Z,99362.83
2019-05-10T04:21:44.693Z,99360.92
2019-05-10T04:22:20.324Z,99355.22
2019-05-10T04:22:56.066Z,99346.86
2019-05-10T04:23:32.430Z,99346.86
2019-05-10T04:24:08.181Z,99360.20
2019-05-10T04:24:44.327Z,99357.05
2019-05-10T04:25:19.765Z,99353.92
2019-05-10T04:25:55.714Z,99359.15
2019-05-10T04:26:31.696Z,99359.63
2019-05-10T04:27:07.496Z,99359.63
2019-05-10T04:27:43.020Z,99363.80
2019-05-10T04:28:18.661Z,99363.80
2019-05-10T04:28:54.286Z,99365.25
2019-05-10T04:29:29.921Z,99365.25
2019-05-10T04:30:05.529Z,99362.16
2019-05-10T04:30:41.234Z,99366.41
2019-05-10T04:31:16.876Z,99366.41
2019-05-10T04:31:52.578Z,99368.09
2019-05-10T04:32:27.994Z,99362.12
2019-05-10T04:33:03.667Z,99362.12
2019-05-10T04:33:40.092Z,99367.22
2019-05-10T04:34:15.906Z,99367.22
2019-05-10T04:34:51.446Z,99370.29
2019-05-10T04:35:27.093Z,99375.61
2019-05-10T04:36:02.981Z,99375.06
2019-05-10T04:36:38.707Z,99375.06
2019-05-10T04:37:14.182Z,99374.83
2019-05-10T04:37:50.130Z,99371.25
2019-05-10T04:38:25.754Z,99374.55
2019-05-10T04:39:01.364Z,99374.55
2019-05-10T04:39:37.295Z,99368.22
2019-05-10T04:40:13.913Z,99368.22
2019-05-10T04:40:49.594Z,99373.19
2019-05-10T04:41:25.564Z,99377.86
2019-05-10T04:42:01.029Z,99377.86
2019-05-10T04:42:36.756Z,99376.58
2019-05-10T04:43:12.414Z,99376.67
2019-05-10T04:43:48.043Z,99376.13
2019-05-10T04:44:23.464Z,99370.23
2019-05-10T04:44:59.117Z,99378.13
2019-05-10T04:45:34.852Z,99378.00
2019-05-10T04:46:10.935Z,99378.00
2019-05-10T04:46:46.394Z,99375.81
2019-05-10T04:47:22.001Z,99375.81
2019-05-10T04:47:57.904Z,99373.48
2019-05-10T04:48:33.522Z,99378.65
2019-05-10T04:49:09.052Z,99377.17
2019-05-10T04:49:45.178Z,99384.30
2019-05-10T04:50:20.785Z,99384.30
2019-05-10T04:50:56.471Z,99372.30
2019-05-10T04:51:31.923Z,99382.84
2019-05-10T04:52:08.159Z,99382.84
2019-05-10T04:52:43.869Z,99382.91
2019-05-10T04:53:19.504Z,99382.91
2019-05-10T04:53:55.240Z,99381.81
2019-05-10T04:54:30.853Z,99379.88
2019-05-10T04:55:07.847Z,99379.88
2019-05-10T04:55:43.570Z,99384.84
2019-05-10T04:56:19.331Z,99387.08
2019-05-10T04:56:59.742Z,99377.33
2019-05-10T04:57:49.157Z,99388.50
2019-05-10T04:58:10.085Z,99374.66
2019-05-10T04:58:46.434Z,99381.92
2019-05-10T04:59:22.102Z,99383.30
2019-05-10T04:59:58.101Z,99383.53
2019-05-10T05:00:34.568Z,99382.47
2019-05-10T05:01:10.070Z,99385.92
2019-05-10T05:01:45.947Z,99385.92
2019-05-10T05:02:22.426Z,99391.89
2019-05-10T05:02:58.265Z,99390.05
2019-05-10T05:03:34.143Z,99388.92
2019-05-10T05:04:09.917Z,99388.53
2019-05-10T05:04:45.944Z,99381.14
2019-05-10T05:05:21.731Z,99392.02
2019-05-10T05:05:57.110Z,99394.41
2019-05-10T05:06:32.732Z,99388.14
2019-05-10T05:07:08.514Z,99388.14
2019-05-10T05:07:44.173Z,99390.92
2019-05-10T05:08:19.609Z,99392.56
2019-05-10T05:08:55.242Z,99389.44
2019-05-10T05:09:30.893Z,99394.92
2019-05-10T05:10:07.744Z,99394.92
2019-05-10T05:10:43.219Z,99392.86
2019-05-10T05:11:18.889Z,99392.86
2019-05-10T05:11:54.495Z,99386.14
2019-05-10T05:12:30.126Z,99390.17
2019-05-10T05:13:05.598Z,99393.89
2019-05-10T05:13:41.243Z,99391.66
2019-05-10T05:14:16.905Z,99391.66
2019-05-10T05:14:52.508Z,99401.58
2019-05-10T05:15:28.338Z,99400.22
2019-05-10T05:16:03.987Z,99400.86
2019-05-10T05:16:40.484Z,99400.86
2019-05-10T05:17:16.484Z,99403.25
2019-05-10T05:17:52.344Z,99399.67
2019-05-10T05:18:28.379Z,99399.67
2019-05-10T05:19:04.006Z,99401.51
2019-05-10T05:19:41.007Z,99401.51
2019-05-10T05:20:16.656Z,99395.70
2019-05-10T05:20:52.316Z,99400.41
2019-05-10T05:21:27.930Z,99410.93
2019-05-10T05:22:03.867Z,99404.57
2019-05-10T05:22:39.842Z,99412.41
2019-05-10T05:23:15.897Z,99413.06
2019-05-10T05:23:51.992Z,99414.58
2019-05-10T05:24:27.596Z,99410.64
2019-05-10T05:25:03.836Z,99410.44
2019-05-10T05:25:41.670Z,99416.42
2019-05-10T05:26:17.505Z,99414.06
2019-05-10T05:26:53.152Z,99411.51
2019-05-10T05:27:29.506Z,99414.22
2019-05-10T05:28:08.363Z,99412.16
2019-05-10T05:28:43.673Z,99412.16
2019-05-10T05:29:19.591Z,99408.34
2019-05-10T05:29:55.117Z,99408.34
2019-05-10T05:30:31.159Z,99416.22
2019-05-10T05:31:07.259Z,99413.98
2019-05-10T05:31:42.984Z,99413.98
2019-05-10T05:32:18.419Z,99415.16
2019-05-10T05:32:56.884Z,99410.30
2019-05-10T05:33:31.354Z,99410.30
2019-05-10T05:34:08.722Z,99409.91
2019-05-10T05:34:44.314Z,99410.58
2019-05-10T05:35:19.991Z,99410.58
2019-05-10T05:35:55.654Z,99413.18
2019-05-10T05:36:31.263Z,99411.58
2019-05-10T05:37:07.515Z,99417.50
2019-05-10T05:37:43.583Z,99422.34
2019-05-10T05:38:19.624Z,99417.42
2019-05-10T05:38:55.265Z,99414.82
2019-05-10T05:39:30.701Z,99414.82
2019-05-10T05:40:07.780Z,99418.11
2019-05-10T05:40:43.528Z,99418.11
2019-05-10T05:41:19.277Z,99429.89
2019-05-10T05:41:56.662Z,99429.89
2019-05-10T05:42:32.340Z,99418.33
2019-05-10T05:43:09.728Z,99421.70
2019-05-10T05:43:48.017Z,99423.37
2019-05-10T05:44:26.205Z,99422.81
2019-05-10T05:45:00.640Z,99424.20
2019-05-10T05:45:37.156Z,99424.20
2019-05-10T05:46:14.588Z,99425.34
2019-05-10T05:46:51.192Z,99427.48
2019-05-10T05:47:26.840Z,99431.81
2019-05-10T05:48:02.483Z,99429.55
2019-05-10T05:48:40.516Z,99418.95
2019-05-10T05:49:16.182Z,99434.55
2019-05-10T05:49:52.494Z,99429.63
2019-05-10T05:50:28.190Z,99434.20
2019-05-10T05:51:03.880Z,99434.20
2019-05-10T05:51:40.071Z,99438.61
2019-05-10T05:52:16.486Z,99437.91
2019-05-10T05:52:52.107Z,99439.65
2019-05-10T05:53:27.761Z,99439.36
2019-05-10T05:54:04.145Z,99432.91
2019-05-10T05:54:40.110Z,99442.48
2019-05-10T05:55:15.779Z,99439.27
2019-05-10T05:55:51.450Z,99440.42
2019-05-10T05:56:26.899Z,99450.31
2019-05-10T05:57:02.865Z,99443.08
2019-05-10T05:57:38.928Z,99443.08
2019-05-10T05:58:25.833Z,99436.55
2019-05-10T05:58:52.589Z,99445.44
2019-05-10T05:59:28.550Z,99451.38
2019-05-10T06:00:06.764Z,99448.58
2019-05-10T06:00:44.561Z,99443.63
2019-05-10T06:01:26.381Z,99449.03
2019-05-10T06:02:00.574Z,99445.67
2019-05-10T06:02:44.250Z,99450.24
2019-05-10T06:03:19.605Z,99447.67
2019-05-10T06:03:50.694Z,99449.42
2019-05-10T06:04:26.419Z,99449.42
2019-05-10T06:05:02.542Z,99451.63
2019-05-10T06:05:38.298Z,99454.22
2019-05-10T06:06:21.232Z,99445.84
2019-05-10T06:06:53.739Z,99450.55
2019-05-10T06:07:31.089Z,99441.67
2019-05-10T06:08:21.577Z,99441.67
2019-05-10T06:08:44.207Z,99446.44
2019-05-10T06:09:19.801Z,99451.61
2019-05-10T06:09:55.439Z,99457.16
2019-05-10T06:10:31.391Z,99452.61
2019-05-10T06:11:09.050Z,99455.34
2019-05-10T06:11:44.312Z,99445.23
2019-05-10T06:12:19.990Z,99457.84
2019-05-10T06:12:55.627Z,99447.30
2019-05-10T06:13:32.522Z,99448.34
2019-05-10T06:14:12.530Z,99453.52
2019-05-10T06:14:49.804Z,99450.94
2019-05-10T06:15:29.056Z,99446.92
2019-05-10T06:16:06.547Z,99457.55
2019-05-10T06:16:38.383Z,99450.77
2019-05-10T06:17:14.884Z,99455.27
2019-05-10T06:17:56.632Z,99455.97
2019-05-10T06:18:28.245Z,99448.88
2019-05-10T06:19:03.939Z,99448.88
2019-05-10T06:19:39.959Z,99450.70
2019-05-10T06:20:15.637Z,99456.19
2019-05-10T06:20:51.431Z,99447.27
2019-05-10T06:21:27.587Z,99459.16
2019-05-10T06:22:04.765Z,99454.13
2019-05-10T06:22:45.594Z,99454.13
2019-05-10T06:23:18.487Z,99454.30
2019-05-10T06:23:54.491Z,99453.00
2019-05-10T06:24:30.219Z,99452.62
2019-05-10T06:25:06.430Z,99452.69
2019-05-10T06:25:43.061Z,99453.74
2019-05-10T06:26:26.510Z,99443.39
2019-05-10T06:26:58.284Z,99443.39
2019-05-10T06:27:35.313Z,99452.31
2019-05-10T06:28:25.600Z,99449.72
2019-05-10T06:28:59.818Z,99449.80
2019-05-10T06:29:26.306Z,99457.55
2019-05-10T06:30:01.935Z,99460.66
2019-05-10T06:30:37.492Z,99453.22
2019-05-10T06:31:13.580Z,99458.47
2019-05-10T06:31:49.652Z,99461.81
2019-05-10T06:32:25.370Z,99454.72
2019-05-10T06:33:12.028Z,99456.78
2019-05-10T06:33:39.560Z,99456.12
2019-05-10T06:34:16.232Z,99461.89
2019-05-10T06:34:51.856Z,99461.89
2019-05-10T06:35:27.311Z,99451.47
2019-05-10T06:36:03.310Z,99453.67
2019-05-10T06:36:39.442Z,99452.83
2019-05-10T06:37:15.115Z,99453.60
2019-05-10T06:37:50.580Z,99464.33
2019-05-10T06:38:26.874Z,99456.26
2019-05-10T06:39:02.588Z,99453.88
2019-05-10T06:39:38.507Z,99465.24
2019-05-10T06:40:14.223Z,99451.47
2019-05-10T06:40:50.275Z,99460.66
2019-05-10T06:41:25.923Z,99460.21
2019-05-10T06:42:01.581Z,99457.83
2019-05-10T06:42:38.165Z,99452.45
2019-05-10T06:43:15.623Z,99453.88
2019-05-10T06:43:53.126Z,99451.45
2019-05-10T06:44:31.262Z,99454.18
2019-05-10T06:45:14.354Z,99454.84
2019-05-10T06:45:46.832Z,99449.72
2019-05-10T06:46:23.785Z,99458.33
2019-05-10T06:47:02.066Z,99459.66
2019-05-10T06:47:41.903Z,99463.16
2019-05-10T06:48:25.832Z,99457.47
2019-05-10T06:48:52.740Z,99461.56
2019-05-10T06:49:28.431Z,99451.59
2019-05-10T06:50:04.733Z,99458.90
2019-05-10T06:50:41.065Z,99455.86
2019-05-10T06:51:16.830Z,99455.23
2019-05-10T06:51:52.736Z,99458.13
2019-05-10T06:52:29.842Z,99449.84
2019-05-10T06:53:10.562Z,99461.38
2019-05-10T06:53:52.286Z,99459.34
2019-05-10T06:54:21.214Z,99456.56
2019-05-10T06:54:58.665Z,99452.69
2019-05-10T06:55:34.029Z,99453.77
2019-05-10T06:56:10.111Z,99457.58
2019-05-10T06:56:45.822Z,99460.37
2019-05-10T06:57:21.300Z,99459.44
2019-05-10T06:58:00.569Z,99463.32
2019-05-10T06:58:36.486Z,99461.30
2019-05-10T06:59:13.801Z,99473.75
2019-05-10T06:59:49.541Z,99457.28
2019-05-10T07:00:25.155Z,99468.48
2019-05-10T07:01:00.814Z,99462.59
2019-05-10T07:01:38.335Z,99462.26
2019-05-10T07:02:13.733Z,99455.97
2019-05-10T07:02:49.419Z,99459.62
2019-05-10T07:03:25.469Z,99464.49
2019-05-10T07:04:01.140Z,99467.64
2019-05-10T07:04:40.957Z,99462.75
2019-05-10T07:05:48.708Z,99460.84
2019-05-10T07:06:24.315Z,99456.90
2019-05-10T07:07:00.102Z,99462.92
2019-05-10T07:07:43.709Z,99467.27
2019-05-10T07:08:19.979Z,99464.03
2019-05-10T07:08:57.362Z,99467.92
2019-05-10T07:09:28.945Z,99465.97